sensor_id;sensor_type;location;lat;lon;timestamp;temperature;humidity
51839;DHT22;37886;53.174;6.368;2023-09-08T00:00:00;18.00;99.90
51839;DHT22;37886;53.174;6.368;2023-09-08T00:02:27;18.00;99.90
51839;DHT22;37886;53.174;6.368;2023-09-08T00:04:53;17.90;99.90
51839;DHT22;37886;53.174;6.368;2023-09-08T00:07:18;18.00;99.90
51839;DHT22;37886;53.174;6.368;2023-09-08T00:09:44;18.00;99.90
51839;DHT22;37886;53.174;6.368;2023-09-08T00:12:10;18.00;99.90
51839;DHT22;37886;53.174;6.368;2023-09-08T00:14:35;17.90;99.90
51839;DHT22;37886;53.174;6.368;2023-09-08T00:17:01;17.90;99.90
51839;DHT22;37886;53.174;6.368;2023-09-08T00:19:27;17.80;99.90
51839;DHT22;37886;53.174;6.368;2023-09-08T00:21:53;17.80;99.90
51839;DHT22;37886;53.174;6.368;2023-09-08T00:24:18;17.70;99.90
51839;DHT22;37886;53.174;6.368;2023-09-08T00:26:44;17.70;99.90
51839;DHT22;37886;53.174;6.368;2023-09-08T00:29:10;17.50;99.90
51839;DHT22;37886;53.174;6.368;2023-09-08T00:31:36;17.50;99.90
51839;DHT22;37886;53.174;6.368;2023-09-08T00:34:01;17.50;99.90
51839;DHT22;37886;53.174;6.368;2023-09-08T00:36:27;17.40;99.90
51839;DHT22;37886;53.174;6.368;2023-09-08T00:38:52;17.40;99.90
51839;DHT22;37886;53.174;6.368;2023-09-08T00:41:18;17.40;99.90
51839;DHT22;37886;53.174;6.368;2023-09-08T00:43:44;17.40;99.90
51839;DHT22;37886;53.174;6.368;2023-09-08T00:46:10;17.40;99.90
51839;DHT22;37886;53.174;6.368;2023-09-08T00:48:37;17.40;99.90
51839;DHT22;37886;53.174;6.368;2023-09-08T00:51:03;17.40;99.90
51839;DHT22;37886;53.174;6.368;2023-09-08T00:53:31;17.30;99.90
51839;DHT22;37886;53.174;6.368;2023-09-08T00:55:57;17.30;99.90
51839;DHT22;37886;53.174;6.368;2023-09-08T00:58:24;17.30;99.90
51839;DHT22;37886;53.174;6.368;2023-09-08T01:00:50;17.30;99.90
51839;DHT22;37886;53.174;6.368;2023-09-08T01:03:16;17.20;99.90
51839;DHT22;37886;53.174;6.368;2023-09-08T01:05:42;17.20;99.90
51839;DHT22;37886;53.174;6.368;2023-09-08T01:08:08;17.20;99.90
51839;DHT22;37886;53.174;6.368;2023-09-08T01:10:34;17.20;99.90
51839;DHT22;37886;53.174;6.368;2023-09-08T01:13:02;17.20;99.90
51839;DHT22;37886;53.174;6.368;2023-09-08T01:15:28;17.10;99.90
51839;DHT22;37886;53.174;6.368;2023-09-08T01:17:54;17.20;99.90
51839;DHT22;37886;53.174;6.368;2023-09-08T01:20:23;17.10;99.90
51839;DHT22;37886;53.174;6.368;2023-09-08T01:23:03;17.10;99.90
51839;DHT22;37886;53.174;6.368;2023-09-08T01:25:38;17.00;99.90
51839;DHT22;37886;53.174;6.368;2023-09-08T01:28:06;17.00;99.90
51839;DHT22;37886;53.174;6.368;2023-09-08T01:30:32;17.00;99.90
51839;DHT22;37886;53.174;6.368;2023-09-08T01:32:59;16.90;99.90
51839;DHT22;37886;53.174;6.368;2023-09-08T01:35:25;16.90;99.90
51839;DHT22;37886;53.174;6.368;2023-09-08T01:37:51;16.90;99.90
51839;DHT22;37886;53.174;6.368;2023-09-08T01:40:17;16.90;99.90
51839;DHT22;37886;53.174;6.368;2023-09-08T01:42:45;16.90;99.90
51839;DHT22;37886;53.174;6.368;2023-09-08T01:45:11;16.80;99.90
51839;DHT22;37886;53.174;6.368;2023-09-08T01:47:37;16.70;99.90
51839;DHT22;37886;53.174;6.368;2023-09-08T01:50:02;16.80;99.90
51839;DHT22;37886;53.174;6.368;2023-09-08T01:52:28;16.70;99.90
51839;DHT22;37886;53.174;6.368;2023-09-08T01:54:54;16.70;99.90
51839;DHT22;37886;53.174;6.368;2023-09-08T01:57:19;16.80;99.90
51839;DHT22;37886;53.174;6.368;2023-09-08T01:59:45;16.80;99.90
51839;DHT22;37886;53.174;6.368;2023-09-08T02:02:11;16.80;99.90
51839;DHT22;37886;53.174;6.368;2023-09-08T02:04:37;16.80;99.90
51839;DHT22;37886;53.174;6.368;2023-09-08T02:07:03;16.80;99.90
51839;DHT22;37886;53.174;6.368;2023-09-08T02:09:34;16.70;99.90
51839;DHT22;37886;53.174;6.368;2023-09-08T02:12:01;16.70;99.90
51839;DHT22;37886;53.174;6.368;2023-09-08T02:14:27;16.70;99.90
51839;DHT22;37886;53.174;6.368;2023-09-08T02:16:54;16.70;99.90
51839;DHT22;37886;53.174;6.368;2023-09-08T02:19:19;16.70;99.90
51839;DHT22;37886;53.174;6.368;2023-09-08T02:21:45;16.70;99.90
51839;DHT22;37886;53.174;6.368;2023-09-08T02:24:11;16.70;99.90
51839;DHT22;37886;53.174;6.368;2023-09-08T02:26:38;16.70;99.90
51839;DHT22;37886;53.174;6.368;2023-09-08T02:29:04;16.60;99.90
51839;DHT22;37886;53.174;6.368;2023-09-08T02:31:29;16.60;99.90
51839;DHT22;37886;53.174;6.368;2023-09-08T02:33:55;16.50;99.90
51839;DHT22;37886;53.174;6.368;2023-09-08T02:36:21;16.60;99.90
51839;DHT22;37886;53.174;6.368;2023-09-08T02:38:53;16.50;99.90
51839;DHT22;37886;53.174;6.368;2023-09-08T02:41:19;16.40;99.90
51839;DHT22;37886;53.174;6.368;2023-09-08T02:43:45;16.40;99.90
51839;DHT22;37886;53.174;6.368;2023-09-08T02:46:10;16.50;99.90
51839;DHT22;37886;53.174;6.368;2023-09-08T02:48:37;16.50;99.90
51839;DHT22;37886;53.174;6.368;2023-09-08T02:51:03;16.50;99.90
51839;DHT22;37886;53.174;6.368;2023-09-08T02:53:28;16.50;99.90
51839;DHT22;37886;53.174;6.368;2023-09-08T02:55:55;16.50;99.90
51839;DHT22;37886;53.174;6.368;2023-09-08T02:58:21;16.40;99.90
51839;DHT22;37886;53.174;6.368;2023-09-08T03:00:47;16.40;99.90
51839;DHT22;37886;53.174;6.368;2023-09-08T03:03:12;16.20;99.90
51839;DHT22;37886;53.174;6.368;2023-09-08T03:05:38;16.20;99.90
51839;DHT22;37886;53.174;6.368;2023-09-08T03:08:04;16.10;99.90
51839;DHT22;37886;53.174;6.368;2023-09-08T03:10:30;16.10;99.90
51839;DHT22;37886;53.174;6.368;2023-09-08T03:13:00;16.10;99.90
51839;DHT22;37886;53.174;6.368;2023-09-08T03:15:25;16.00;99.90
51839;DHT22;37886;53.174;6.368;2023-09-08T03:17:54;16.00;99.90
51839;DHT22;37886;53.174;6.368;2023-09-08T03:20:20;15.90;99.90
51839;DHT22;37886;53.174;6.368;2023-09-08T03:22:46;15.90;99.90
51839;DHT22;37886;53.174;6.368;2023-09-08T03:25:14;15.90;99.90
51839;DHT22;37886;53.174;6.368;2023-09-08T03:27:40;15.80;99.90
51839;DHT22;37886;53.174;6.368;2023-09-08T03:30:06;15.80;99.90
51839;DHT22;37886;53.174;6.368;2023-09-08T03:32:32;15.80;99.90
51839;DHT22;37886;53.174;6.368;2023-09-08T03:34:58;15.80;99.90
51839;DHT22;37886;53.174;6.368;2023-09-08T03:37:23;15.70;99.90
51839;DHT22;37886;53.174;6.368;2023-09-08T03:39:50;15.70;99.90
51839;DHT22;37886;53.174;6.368;2023-09-08T03:42:16;15.70;99.90
51839;DHT22;37886;53.174;6.368;2023-09-08T03:44:41;15.60;99.90
51839;DHT22;37886;53.174;6.368;2023-09-08T03:47:07;15.60;99.90
51839;DHT22;37886;53.174;6.368;2023-09-08T03:49:33;15.60;99.90
51839;DHT22;37886;53.174;6.368;2023-09-08T03:51:58;15.60;99.90
51839;DHT22;37886;53.174;6.368;2023-09-08T03:54:24;15.60;99.90
51839;DHT22;37886;53.174;6.368;2023-09-08T03:56:49;15.50;99.90
51839;DHT22;37886;53.174;6.368;2023-09-08T03:59:15;15.50;99.90
51839;DHT22;37886;53.174;6.368;2023-09-08T04:01:41;15.50;99.90
51839;DHT22;37886;53.174;6.368;2023-09-08T04:04:07;15.50;99.90
51839;DHT22;37886;53.174;6.368;2023-09-08T04:06:32;15.50;99.90
51839;DHT22;37886;53.174;6.368;2023-09-08T04:08:58;15.40;99.90
51839;DHT22;37886;53.174;6.368;2023-09-08T04:11:24;15.40;99.90
51839;DHT22;37886;53.174;6.368;2023-09-08T04:13:49;15.40;99.90
51839;DHT22;37886;53.174;6.368;2023-09-08T04:16:15;15.40;99.90
51839;DHT22;37886;53.174;6.368;2023-09-08T04:18:41;15.30;99.90
51839;DHT22;37886;53.174;6.368;2023-09-08T04:21:07;15.40;99.90
51839;DHT22;37886;53.174;6.368;2023-09-08T04:23:33;15.40;99.90
51839;DHT22;37886;53.174;6.368;2023-09-08T04:25:59;15.40;99.90
51839;DHT22;37886;53.174;6.368;2023-09-08T04:28:24;15.40;99.90
51839;DHT22;37886;53.174;6.368;2023-09-08T04:30:50;15.40;99.90
51839;DHT22;37886;53.174;6.368;2023-09-08T04:33:16;15.40;99.90
51839;DHT22;37886;53.174;6.368;2023-09-08T04:35:41;15.40;99.90
51839;DHT22;37886;53.174;6.368;2023-09-08T04:38:07;15.30;99.90
51839;DHT22;37886;53.174;6.368;2023-09-08T04:40:34;15.30;99.90
51839;DHT22;37886;53.174;6.368;2023-09-08T04:43:00;15.40;99.90
51839;DHT22;37886;53.174;6.368;2023-09-08T04:45:25;15.40;99.90
51839;DHT22;37886;53.174;6.368;2023-09-08T04:47:51;15.40;99.90
51839;DHT22;37886;53.174;6.368;2023-09-08T04:50:17;15.40;99.90
51839;DHT22;37886;53.174;6.368;2023-09-08T04:52:43;15.40;99.90
51839;DHT22;37886;53.174;6.368;2023-09-08T04:55:10;15.40;99.90
51839;DHT22;37886;53.174;6.368;2023-09-08T04:57:35;15.30;99.90
51839;DHT22;37886;53.174;6.368;2023-09-08T05:00:02;15.30;99.90
51839;DHT22;37886;53.174;6.368;2023-09-08T05:02:28;15.30;99.90
51839;DHT22;37886;53.174;6.368;2023-09-08T05:04:53;15.40;99.90
51839;DHT22;37886;53.174;6.368;2023-09-08T05:07:19;15.40;99.90
51839;DHT22;37886;53.174;6.368;2023-09-08T05:09:45;15.40;99.90
51839;DHT22;37886;53.174;6.368;2023-09-08T05:12:11;15.50;99.90
51839;DHT22;37886;53.174;6.368;2023-09-08T05:14:36;15.50;99.90
51839;DHT22;37886;53.174;6.368;2023-09-08T05:17:02;15.50;99.90
51839;DHT22;37886;53.174;6.368;2023-09-08T05:19:28;15.50;99.90
51839;DHT22;37886;53.174;6.368;2023-09-08T05:21:55;15.60;99.90
51839;DHT22;37886;53.174;6.368;2023-09-08T05:24:20;15.60;99.90
51839;DHT22;37886;53.174;6.368;2023-09-08T05:26:46;15.60;99.90
51839;DHT22;37886;53.174;6.368;2023-09-08T05:29:12;15.70;99.90
51839;DHT22;37886;53.174;6.368;2023-09-08T05:31:38;15.70;99.90
51839;DHT22;37886;53.174;6.368;2023-09-08T05:34:04;15.70;99.90
51839;DHT22;37886;53.174;6.368;2023-09-08T05:36:30;15.80;99.90
51839;DHT22;37886;53.174;6.368;2023-09-08T05:38:56;15.80;99.90
51839;DHT22;37886;53.174;6.368;2023-09-08T05:41:22;15.90;99.90
51839;DHT22;37886;53.174;6.368;2023-09-08T05:43:48;15.90;99.90
51839;DHT22;37886;53.174;6.368;2023-09-08T05:46:13;15.90;99.90
51839;DHT22;37886;53.174;6.368;2023-09-08T05:48:39;15.90;99.90
51839;DHT22;37886;53.174;6.368;2023-09-08T05:51:05;15.90;99.90
51839;DHT22;37886;53.174;6.368;2023-09-08T05:53:32;15.90;99.90
51839;DHT22;37886;53.174;6.368;2023-09-08T05:55:59;16.00;99.90
51839;DHT22;37886;53.174;6.368;2023-09-08T05:58:24;16.00;99.90
51839;DHT22;37886;53.174;6.368;2023-09-08T06:00:53;16.00;99.90
51839;DHT22;37886;53.174;6.368;2023-09-08T06:03:19;16.00;99.90
51839;DHT22;37886;53.174;6.368;2023-09-08T06:05:45;16.10;99.90
51839;DHT22;37886;53.174;6.368;2023-09-08T06:08:11;16.20;99.90
51839;DHT22;37886;53.174;6.368;2023-09-08T06:10:37;16.40;99.90
51839;DHT22;37886;53.174;6.368;2023-09-08T06:13:04;16.40;99.90
51839;DHT22;37886;53.174;6.368;2023-09-08T06:15:30;16.50;99.90
51839;DHT22;37886;53.174;6.368;2023-09-08T06:17:56;16.60;99.90
51839;DHT22;37886;53.174;6.368;2023-09-08T06:20:21;16.70;99.90
51839;DHT22;37886;53.174;6.368;2023-09-08T06:22:47;16.80;99.90
51839;DHT22;37886;53.174;6.368;2023-09-08T06:25:13;16.80;99.90
51839;DHT22;37886;53.174;6.368;2023-09-08T06:27:39;17.00;99.90
51839;DHT22;37886;53.174;6.368;2023-09-08T06:30:05;17.00;99.90
51839;DHT22;37886;53.174;6.368;2023-09-08T06:32:31;17.00;99.90
51839;DHT22;37886;53.174;6.368;2023-09-08T06:34:57;17.10;99.90
51839;DHT22;37886;53.174;6.368;2023-09-08T06:37:22;17.10;99.90
51839;DHT22;37886;53.174;6.368;2023-09-08T06:39:48;17.20;99.90
51839;DHT22;37886;53.174;6.368;2023-09-08T06:42:14;17.30;99.90
51839;DHT22;37886;53.174;6.368;2023-09-08T06:44:40;17.30;99.90
51839;DHT22;37886;53.174;6.368;2023-09-08T06:47:05;17.40;99.90
51839;DHT22;37886;53.174;6.368;2023-09-08T06:49:33;17.50;99.90
51839;DHT22;37886;53.174;6.368;2023-09-08T06:51:59;17.70;99.90
51839;DHT22;37886;53.174;6.368;2023-09-08T06:54:25;17.80;99.90
51839;DHT22;37886;53.174;6.368;2023-09-08T06:56:50;17.90;99.90
51839;DHT22;37886;53.174;6.368;2023-09-08T06:59:16;18.00;99.90
51839;DHT22;37886;53.174;6.368;2023-09-08T07:01:42;18.10;99.90
51839;DHT22;37886;53.174;6.368;2023-09-08T07:04:11;18.30;99.90
51839;DHT22;37886;53.174;6.368;2023-09-08T07:06:37;18.30;99.90
51839;DHT22;37886;53.174;6.368;2023-09-08T07:09:04;18.50;99.90
51839;DHT22;37886;53.174;6.368;2023-09-08T07:11:29;18.60;99.90
51839;DHT22;37886;53.174;6.368;2023-09-08T07:13:56;18.80;99.90
51839;DHT22;37886;53.174;6.368;2023-09-08T07:16:22;18.80;99.90
51839;DHT22;37886;53.174;6.368;2023-09-08T07:18:47;18.90;99.90
51839;DHT22;37886;53.174;6.368;2023-09-08T07:21:13;19.00;99.90
51839;DHT22;37886;53.174;6.368;2023-09-08T07:23:39;19.10;99.90
51839;DHT22;37886;53.174;6.368;2023-09-08T07:26:04;19.10;99.90
51839;DHT22;37886;53.174;6.368;2023-09-08T07:28:31;19.20;99.90
51839;DHT22;37886;53.174;6.368;2023-09-08T07:31:04;19.50;99.90
51839;DHT22;37886;53.174;6.368;2023-09-08T07:33:30;19.60;99.90
51839;DHT22;37886;53.174;6.368;2023-09-08T07:35:56;19.70;99.90
51839;DHT22;37886;53.174;6.368;2023-09-08T07:38:21;19.80;99.90
51839;DHT22;37886;53.174;6.368;2023-09-08T07:40:47;19.90;99.90
51839;DHT22;37886;53.174;6.368;2023-09-08T07:43:13;20.00;99.90
51839;DHT22;37886;53.174;6.368;2023-09-08T07:45:38;20.20;99.90
51839;DHT22;37886;53.174;6.368;2023-09-08T07:48:06;20.30;99.90
51839;DHT22;37886;53.174;6.368;2023-09-08T07:50:32;20.40;99.90
51839;DHT22;37886;53.174;6.368;2023-09-08T07:52:57;20.60;99.90
51839;DHT22;37886;53.174;6.368;2023-09-08T07:55:24;20.70;99.90
51839;DHT22;37886;53.174;6.368;2023-09-08T07:57:53;20.80;99.90
51839;DHT22;37886;53.174;6.368;2023-09-08T08:00:19;21.00;99.90
51839;DHT22;37886;53.174;6.368;2023-09-08T08:02:50;21.00;99.90
51839;DHT22;37886;53.174;6.368;2023-09-08T08:05:16;21.00;99.90
51839;DHT22;37886;53.174;6.368;2023-09-08T08:07:43;21.20;99.90
51839;DHT22;37886;53.174;6.368;2023-09-08T08:10:10;21.30;99.90
51839;DHT22;37886;53.174;6.368;2023-09-08T08:12:36;21.30;99.90
51839;DHT22;37886;53.174;6.368;2023-09-08T08:15:03;21.40;99.90
51839;DHT22;37886;53.174;6.368;2023-09-08T08:17:30;21.50;99.90
51839;DHT22;37886;53.174;6.368;2023-09-08T08:19:56;21.70;99.90
51839;DHT22;37886;53.174;6.368;2023-09-08T08:22:27;21.80;99.90
51839;DHT22;37886;53.174;6.368;2023-09-08T08:24:52;21.80;99.90
51839;DHT22;37886;53.174;6.368;2023-09-08T08:27:18;22.10;99.90
51839;DHT22;37886;53.174;6.368;2023-09-08T08:29:44;22.20;99.90
51839;DHT22;37886;53.174;6.368;2023-09-08T08:32:09;22.20;99.90
51839;DHT22;37886;53.174;6.368;2023-09-08T08:34:36;22.30;99.90
51839;DHT22;37886;53.174;6.368;2023-09-08T08:37:02;22.40;99.90
51839;DHT22;37886;53.174;6.368;2023-09-08T08:39:28;22.40;99.90
51839;DHT22;37886;53.174;6.368;2023-09-08T08:41:54;22.60;99.90
51839;DHT22;37886;53.174;6.368;2023-09-08T08:44:20;22.70;99.90
51839;DHT22;37886;53.174;6.368;2023-09-08T08:46:46;22.80;99.90
51839;DHT22;37886;53.174;6.368;2023-09-08T08:49:15;22.90;99.90
51839;DHT22;37886;53.174;6.368;2023-09-08T08:51:50;23.00;99.90
51839;DHT22;37886;53.174;6.368;2023-09-08T08:54:17;23.40;99.90
51839;DHT22;37886;53.174;6.368;2023-09-08T08:56:43;23.70;99.90
51839;DHT22;37886;53.174;6.368;2023-09-08T08:59:10;23.70;99.90
51839;DHT22;37886;53.174;6.368;2023-09-08T09:01:37;23.60;99.90
51839;DHT22;37886;53.174;6.368;2023-09-08T09:04:05;23.80;99.90
51839;DHT22;37886;53.174;6.368;2023-09-08T09:06:32;23.80;99.90
51839;DHT22;37886;53.174;6.368;2023-09-08T09:08:58;23.80;99.90
51839;DHT22;37886;53.174;6.368;2023-09-08T09:11:25;24.00;99.90
51839;DHT22;37886;53.174;6.368;2023-09-08T09:13:51;24.10;99.90
51839;DHT22;37886;53.174;6.368;2023-09-08T09:16:16;24.30;99.90
51839;DHT22;37886;53.174;6.368;2023-09-08T09:18:58;24.50;99.90
51839;DHT22;37886;53.174;6.368;2023-09-08T09:21:47;24.40;99.90
51839;DHT22;37886;53.174;6.368;2023-09-08T09:24:19;24.50;99.90
51839;DHT22;37886;53.174;6.368;2023-09-08T09:26:53;24.60;99.90
51839;DHT22;37886;53.174;6.368;2023-09-08T09:29:19;24.60;99.90
51839;DHT22;37886;53.174;6.368;2023-09-08T09:31:57;24.80;99.90
51839;DHT22;37886;53.174;6.368;2023-09-08T09:34:23;25.00;99.90
51839;DHT22;37886;53.174;6.368;2023-09-08T09:36:51;25.10;99.90
51839;DHT22;37886;53.174;6.368;2023-09-08T09:39:18;25.00;99.90
51839;DHT22;37886;53.174;6.368;2023-09-08T09:41:48;25.30;99.90
51839;DHT22;37886;53.174;6.368;2023-09-08T09:44:14;25.30;99.90
51839;DHT22;37886;53.174;6.368;2023-09-08T09:46:48;25.30;99.90
51839;DHT22;37886;53.174;6.368;2023-09-08T09:49:15;25.50;99.90
51839;DHT22;37886;53.174;6.368;2023-09-08T09:51:48;25.60;99.90
51839;DHT22;37886;53.174;6.368;2023-09-08T09:54:15;25.70;99.90
51839;DHT22;37886;53.174;6.368;2023-09-08T09:56:41;25.70;99.90
51839;DHT22;37886;53.174;6.368;2023-09-08T09:59:08;25.80;99.90
51839;DHT22;37886;53.174;6.368;2023-09-08T10:01:36;25.80;99.90
51839;DHT22;37886;53.174;6.368;2023-09-08T10:04:05;25.90;99.90
51839;DHT22;37886;53.174;6.368;2023-09-08T10:06:33;26.10;99.90
51839;DHT22;37886;53.174;6.368;2023-09-08T10:09:00;26.20;99.90
51839;DHT22;37886;53.174;6.368;2023-09-08T10:11:29;26.40;99.90
51839;DHT22;37886;53.174;6.368;2023-09-08T10:13:59;26.40;99.90
51839;DHT22;37886;53.174;6.368;2023-09-08T10:16:27;26.50;99.90
51839;DHT22;37886;53.174;6.368;2023-09-08T10:18:56;26.50;99.90
51839;DHT22;37886;53.174;6.368;2023-09-08T10:21:26;26.60;99.90
51839;DHT22;37886;53.174;6.368;2023-09-08T10:24:02;26.60;99.90
51839;DHT22;37886;53.174;6.368;2023-09-08T10:26:33;26.60;99.90
51839;DHT22;37886;53.174;6.368;2023-09-08T10:29:00;26.70;99.90
51839;DHT22;37886;53.174;6.368;2023-09-08T10:31:27;26.80;99.90
51839;DHT22;37886;53.174;6.368;2023-09-08T10:33:57;26.90;99.90
51839;DHT22;37886;53.174;6.368;2023-09-08T10:36:24;27.00;99.90
51839;DHT22;37886;53.174;6.368;2023-09-08T10:38:50;27.20;99.90
51839;DHT22;37886;53.174;6.368;2023-09-08T10:43:46;27.30;99.90
51839;DHT22;37886;53.174;6.368;2023-09-08T10:46:24;27.50;99.90
51839;DHT22;37886;53.174;6.368;2023-09-08T10:48:53;27.60;99.90
51839;DHT22;37886;53.174;6.368;2023-09-08T10:51:20;27.80;99.90
51839;DHT22;37886;53.174;6.368;2023-09-08T10:53:49;27.90;99.90
51839;DHT22;37886;53.174;6.368;2023-09-08T10:56:17;28.00;99.90
51839;DHT22;37886;53.174;6.368;2023-09-08T10:58:51;28.00;99.90
51839;DHT22;37886;53.174;6.368;2023-09-08T11:01:21;28.00;99.90
51839;DHT22;37886;53.174;6.368;2023-09-08T11:03:53;28.20;99.90
51839;DHT22;37886;53.174;6.368;2023-09-08T11:06:20;28.20;99.90
51839;DHT22;37886;53.174;6.368;2023-09-08T11:08:50;28.40;99.90
51839;DHT22;37886;53.174;6.368;2023-09-08T11:11:21;28.60;99.90
51839;DHT22;37886;53.174;6.368;2023-09-08T11:13:46;28.70;99.90
51839;DHT22;37886;53.174;6.368;2023-09-08T11:16:14;28.90;99.90
51839;DHT22;37886;53.174;6.368;2023-09-08T11:18:40;29.00;99.90
51839;DHT22;37886;53.174;6.368;2023-09-08T11:21:08;29.10;99.90
51839;DHT22;37886;53.174;6.368;2023-09-08T11:23:34;29.40;99.90
51839;DHT22;37886;53.174;6.368;2023-09-08T11:26:00;29.40;99.90
51839;DHT22;37886;53.174;6.368;2023-09-08T11:28:29;29.80;99.90
51839;DHT22;37886;53.174;6.368;2023-09-08T11:30:55;29.80;99.90
51839;DHT22;37886;53.174;6.368;2023-09-08T11:33:22;30.10;99.90
51839;DHT22;37886;53.174;6.368;2023-09-08T11:35:53;30.20;99.90
51839;DHT22;37886;53.174;6.368;2023-09-08T11:38:25;30.40;99.90
51839;DHT22;37886;53.174;6.368;2023-09-08T11:40:52;30.40;99.90
51839;DHT22;37886;53.174;6.368;2023-09-08T11:43:19;30.60;99.90
51839;DHT22;37886;53.174;6.368;2023-09-08T11:45:45;31.00;99.90
51839;DHT22;37886;53.174;6.368;2023-09-08T11:48:11;31.30;99.90
51839;DHT22;37886;53.174;6.368;2023-09-08T11:50:36;31.70;99.90
51839;DHT22;37886;53.174;6.368;2023-09-08T11:53:02;31.70;99.90
51839;DHT22;37886;53.174;6.368;2023-09-08T11:55:28;31.90;99.90
51839;DHT22;37886;53.174;6.368;2023-09-08T11:57:55;31.60;99.90
51839;DHT22;37886;53.174;6.368;2023-09-08T12:00:26;31.80;99.90
51839;DHT22;37886;53.174;6.368;2023-09-08T12:02:52;31.90;99.90
51839;DHT22;37886;53.174;6.368;2023-09-08T12:05:25;32.00;99.30
51839;DHT22;37886;53.174;6.368;2023-09-08T12:07:53;31.90;99.60
51839;DHT22;37886;53.174;6.368;2023-09-08T12:10:19;32.30;99.20
51839;DHT22;37886;53.174;6.368;2023-09-08T12:12:47;32.90;98.50
51839;DHT22;37886;53.174;6.368;2023-09-08T12:15:30;33.00;99.20
51839;DHT22;37886;53.174;6.368;2023-09-08T12:18:02;33.30;98.10
51839;DHT22;37886;53.174;6.368;2023-09-08T12:20:29;32.70;98.40
51839;DHT22;37886;53.174;6.368;2023-09-08T12:22:58;33.00;96.90
51839;DHT22;37886;53.174;6.368;2023-09-08T12:25:25;33.20;98.50
51839;DHT22;37886;53.174;6.368;2023-09-08T12:27:51;33.50;98.40
51839;DHT22;37886;53.174;6.368;2023-09-08T12:30:22;33.20;97.30
51839;DHT22;37886;53.174;6.368;2023-09-08T12:32:56;33.40;96.70
51839;DHT22;37886;53.174;6.368;2023-09-08T12:35:23;33.60;97.30
51839;DHT22;37886;53.174;6.368;2023-09-08T12:38:03;33.30;95.80
51839;DHT22;37886;53.174;6.368;2023-09-08T12:40:29;33.90;94.20
51839;DHT22;37886;53.174;6.368;2023-09-08T12:42:56;33.50;94.10
51839;DHT22;37886;53.174;6.368;2023-09-08T12:45:25;33.40;94.30
51839;DHT22;37886;53.174;6.368;2023-09-08T12:47:51;33.30;93.60
51839;DHT22;37886;53.174;6.368;2023-09-08T12:50:17;33.50;94.00
51839;DHT22;37886;53.174;6.368;2023-09-08T12:52:43;33.70;93.70
51839;DHT22;37886;53.174;6.368;2023-09-08T12:55:10;33.50;93.40
51839;DHT22;37886;53.174;6.368;2023-09-08T12:57:36;33.90;93.70
51839;DHT22;37886;53.174;6.368;2023-09-08T13:00:03;33.80;92.60
51839;DHT22;37886;53.174;6.368;2023-09-08T13:02:29;33.40;92.20
51839;DHT22;37886;53.174;6.368;2023-09-08T13:04:55;33.60;92.80
51839;DHT22;37886;53.174;6.368;2023-09-08T13:07:21;33.60;92.90
51839;DHT22;37886;53.174;6.368;2023-09-08T13:09:46;34.10;92.70
51839;DHT22;37886;53.174;6.368;2023-09-08T13:12:12;34.20;92.70
51839;DHT22;37886;53.174;6.368;2023-09-08T13:14:42;34.30;92.40
51839;DHT22;37886;53.174;6.368;2023-09-08T13:17:09;34.20;91.60
51839;DHT22;37886;53.174;6.368;2023-09-08T13:19:35;33.40;91.50
51839;DHT22;37886;53.174;6.368;2023-09-08T13:22:06;33.20;92.50
51839;DHT22;37886;53.174;6.368;2023-09-08T13:24:32;33.70;92.30
51839;DHT22;37886;53.174;6.368;2023-09-08T13:26:59;34.40;91.40
51839;DHT22;37886;53.174;6.368;2023-09-08T13:29:27;34.30;91.80
51839;DHT22;37886;53.174;6.368;2023-09-08T13:31:53;34.30;91.20
51839;DHT22;37886;53.174;6.368;2023-09-08T13:34:20;33.70;91.20
51839;DHT22;37886;53.174;6.368;2023-09-08T13:36:47;33.30;91.10
51839;DHT22;37886;53.174;6.368;2023-09-08T13:39:12;33.40;90.90
51839;DHT22;37886;53.174;6.368;2023-09-08T13:41:52;33.50;90.70
51839;DHT22;37886;53.174;6.368;2023-09-08T13:44:20;33.50;91.20
51839;DHT22;37886;53.174;6.368;2023-09-08T13:46:53;33.60;90.80
51839;DHT22;37886;53.174;6.368;2023-09-08T13:49:19;33.90;90.60
51839;DHT22;37886;53.174;6.368;2023-09-08T13:51:46;34.40;91.10
51839;DHT22;37886;53.174;6.368;2023-09-08T13:54:12;33.90;90.10
51839;DHT22;37886;53.174;6.368;2023-09-08T13:56:41;34.30;90.00
51839;DHT22;37886;53.174;6.368;2023-09-08T13:59:08;33.80;88.80
51839;DHT22;37886;53.174;6.368;2023-09-08T14:01:35;34.30;90.40
51839;DHT22;37886;53.174;6.368;2023-09-08T14:04:01;34.40;90.70
51839;DHT22;37886;53.174;6.368;2023-09-08T14:06:28;33.90;89.70
51839;DHT22;37886;53.174;6.368;2023-09-08T14:08:53;34.70;90.50
51839;DHT22;37886;53.174;6.368;2023-09-08T14:11:20;35.30;90.60
51839;DHT22;37886;53.174;6.368;2023-09-08T14:13:46;35.50;90.60
51839;DHT22;37886;53.174;6.368;2023-09-08T14:16:12;35.90;88.40
51839;DHT22;37886;53.174;6.368;2023-09-08T14:18:38;36.00;89.30
51839;DHT22;37886;53.174;6.368;2023-09-08T14:21:05;36.30;88.90
51839;DHT22;37886;53.174;6.368;2023-09-08T14:23:31;36.80;90.10
51839;DHT22;37886;53.174;6.368;2023-09-08T14:25:57;36.60;90.00
51839;DHT22;37886;53.174;6.368;2023-09-08T14:28:22;37.30;89.70
51839;DHT22;37886;53.174;6.368;2023-09-08T14:30:52;37.20;88.00
51839;DHT22;37886;53.174;6.368;2023-09-08T14:33:18;37.20;89.10
51839;DHT22;37886;53.174;6.368;2023-09-08T14:35:44;37.80;88.00
51839;DHT22;37886;53.174;6.368;2023-09-08T14:38:12;38.20;88.60
51839;DHT22;37886;53.174;6.368;2023-09-08T14:40:38;38.20;87.00
51839;DHT22;37886;53.174;6.368;2023-09-08T14:43:04;37.90;87.30
51839;DHT22;37886;53.174;6.368;2023-09-08T14:45:30;37.80;86.90
51839;DHT22;37886;53.174;6.368;2023-09-08T14:47:56;37.70;86.70
51839;DHT22;37886;53.174;6.368;2023-09-08T14:50:21;37.20;85.60
51839;DHT22;37886;53.174;6.368;2023-09-08T14:52:47;38.30;87.20
51839;DHT22;37886;53.174;6.368;2023-09-08T14:55:13;37.20;85.20
51839;DHT22;37886;53.174;6.368;2023-09-08T14:57:39;37.60;85.70
51839;DHT22;37886;53.174;6.368;2023-09-08T15:00:05;38.40;86.80
51839;DHT22;37886;53.174;6.368;2023-09-08T15:02:31;37.50;85.00
51839;DHT22;37886;53.174;6.368;2023-09-08T15:04:57;36.60;85.50
51839;DHT22;37886;53.174;6.368;2023-09-08T15:07:23;36.80;85.80
51839;DHT22;37886;53.174;6.368;2023-09-08T15:09:48;36.70;86.70
51839;DHT22;37886;53.174;6.368;2023-09-08T15:12:16;36.70;86.20
51839;DHT22;37886;53.174;6.368;2023-09-08T15:14:41;36.90;84.80
51839;DHT22;37886;53.174;6.368;2023-09-08T15:17:07;36.40;86.60
51839;DHT22;37886;53.174;6.368;2023-09-08T15:19:33;34.50;87.50
51839;DHT22;37886;53.174;6.368;2023-09-08T15:21:58;33.30;89.20
51839;DHT22;37886;53.174;6.368;2023-09-08T15:24:24;32.40;90.10
51839;DHT22;37886;53.174;6.368;2023-09-08T15:26:50;31.70;90.50
51839;DHT22;37886;53.174;6.368;2023-09-08T15:29:16;31.30;91.60